createdAt,value
2017-06-12T00:02:30.361Z,68.00
2017-06-12T00:05:04.140Z,67.90
2017-06-12T00:07:37.901Z,67.30
2017-06-12T00:10:11.676Z,65.70
2017-06-12T00:12:46.312Z,66.10
2017-06-12T00:15:20.180Z,65.90
2017-06-12T00:17:54.821Z,66.80
2017-06-12T00:20:28.741Z,67.40
2017-06-12T00:23:03.384Z,67.30
2017-06-12T00:25:37.068Z,68.30
2017-06-12T00:28:10.968Z,68.10
2017-06-12T00:30:45.328Z,71.10
2017-06-12T00:33:19.036Z,71.60
2017-06-12T00:35:52.816Z,68.70
2017-06-12T00:38:26.624Z,68.20
2017-06-12T00:41:00.343Z,69.70
2017-06-12T00:43:34.064Z,70.10
2017-06-12T00:46:07.672Z,71.20
2017-06-12T00:48:41.493Z,68.70
2017-06-12T00:51:15.129Z,69.60
2017-06-12T00:53:49.933Z,69.30
2017-06-12T00:56:23.759Z,68.50
2017-06-12T00:58:58.820Z,68.80
2017-06-12T01:01:32.424Z,70.30
2017-06-12T01:04:06.258Z,69.70
2017-06-12T01:06:39.901Z,70.50
2017-06-12T01:09:13.767Z,69.10
2017-06-12T01:11:49.121Z,70.60
2017-06-12T01:14:23.248Z,70.60
2017-06-12T01:16:57.752Z,70.10
2017-06-12T01:19:31.844Z,70.00
2017-06-12T01:22:31.038Z,71.50
2017-06-12T01:25:05.608Z,71.60
2017-06-12T01:27:40.116Z,70.70
2017-06-12T01:30:14.369Z,70.70
2017-06-12T01:32:49.467Z,70.40
2017-06-12T01:35:23.516Z,70.40
2017-06-12T01:37:57.904Z,70.30
2017-06-12T01:40:32.013Z,70.40
2017-06-12T01:43:06.432Z,71.20
2017-06-12T01:45:40.580Z,71.10
2017-06-12T01:48:14.968Z,73.50
2017-06-12T01:50:49.044Z,73.50
2017-06-12T01:53:23.605Z,71.90
2017-06-12T01:55:57.597Z,71.00
2017-06-12T01:58:32.016Z,72.80
2017-06-12T02:01:05.692Z,71.30
2017-06-12T02:03:39.345Z,70.80
2017-06-12T02:06:13.077Z,70.70
2017-06-12T02:08:46.677Z,71.00
2017-06-12T02:11:20.704Z,72.30
2017-06-12T02:13:55.073Z,71.10
2017-06-12T02:16:29.385Z,71.10
2017-06-12T02:19:03.820Z,73.60
2017-06-12T02:21:37.748Z,72.90
2017-06-12T02:24:12.371Z,72.10
2017-06-12T02:26:46.072Z,71.70
2017-06-12T02:29:20.472Z,71.60
2017-06-12T02:31:54.636Z,71.50
2017-06-12T02:34:29.203Z,74.40
2017-06-12T02:37:03.297Z,74.30
2017-06-12T02:39:36.916Z,72.70
2017-06-12T02:42:10.820Z,72.30
2017-06-12T02:44:44.500Z,71.10
2017-06-12T02:47:18.292Z,73.00
2017-06-12T02:49:52.907Z,73.30
2017-06-12T02:52:26.812Z,74.50
2017-06-12T02:55:01.272Z,72.90
2017-06-12T02:57:35.048Z,71.70
2017-06-12T03:00:08.677Z,72.20
2017-06-12T03:02:43.164Z,72.50
2017-06-12T03:05:17.744Z,71.30
2017-06-12T03:07:52.615Z,71.90
2017-06-12T03:10:33.264Z,70.30
2017-06-12T03:13:07.204Z,70.10
2017-06-12T03:15:41.782Z,65.30
2017-06-12T03:18:15.880Z,65.20
2017-06-12T03:20:49.696Z,64.80
2017-06-12T03:23:23.549Z,63.80
2017-06-12T03:25:58.021Z,64.20
2017-06-12T03:28:32.177Z,64.00
2017-06-12T03:31:07.479Z,64.40
2017-06-12T03:33:41.576Z,64.30
2017-06-12T03:36:16.112Z,64.40
2017-06-12T03:38:49.884Z,64.50
2017-06-12T03:41:23.524Z,64.50
2017-06-12T03:43:57.192Z,65.00
2017-06-12T03:46:30.857Z,65.20
2017-06-12T03:49:05.499Z,65.70
2017-06-12T03:51:40.084Z,66.00
2017-06-12T03:54:14.337Z,66.00
2017-06-12T03:56:49.634Z,67.40
2017-06-12T03:59:24.684Z,67.40
2017-06-12T04:01:58.419Z,67.50
2017-06-12T04:04:32.084Z,67.90
2017-06-12T04:07:05.831Z,68.50
2017-06-12T04:09:39.662Z,68.50
2017-06-12T04:12:14.109Z,69.00
2017-06-12T04:14:48.035Z,68.90
2017-06-12T04:17:22.440Z,69.50
2017-06-12T04:19:56.357Z,68.90
2017-06-12T04:22:30.876Z,70.50
2017-06-12T04:25:05.648Z,69.50
2017-06-12T04:27:39.508Z,69.30
2017-06-12T04:30:13.244Z,69.80
2017-06-12T04:32:47.768Z,69.00
2017-06-12T04:35:21.608Z,68.50
2017-06-12T04:37:55.348Z,69.70
2017-06-12T04:40:29.132Z,68.50
2017-06-12T04:43:03.005Z,68.10
2017-06-12T04:45:37.736Z,68.30
2017-06-12T04:48:11.584Z,68.20
2017-06-12T04:50:45.272Z,68.60
2017-06-12T04:53:18.944Z,68.60
2017-06-12T04:55:53.152Z,67.80
2017-06-12T04:58:27.476Z,67.20
2017-06-12T05:01:02.247Z,68.40
2017-06-12T05:03:36.204Z,67.80
2017-06-12T05:06:09.995Z,67.50
2017-06-12T05:08:44.512Z,67.50
2017-06-12T05:11:18.956Z,67.30
2017-06-12T05:13:52.870Z,67.30
2017-06-12T05:16:27.583Z,68.40
2017-06-12T05:19:01.500Z,67.10
2017-06-12T05:21:35.928Z,65.70
2017-06-12T05:24:10.039Z,65.70
2017-06-12T05:26:43.876Z,66.20
2017-06-12T05:29:18.463Z,66.90
2017-06-12T05:31:53.983Z,67.10
2017-06-12T05:34:27.852Z,67.10
2017-06-12T05:37:02.332Z,66.90
2017-06-12T05:39:36.277Z,66.80
2017-06-12T05:42:10.044Z,67.30
2017-06-12T05:44:43.687Z,67.50
2017-06-12T05:47:18.288Z,68.70
2017-06-12T05:49:53.086Z,67.10
2017-06-12T05:52:27.124Z,67.00
2017-06-12T05:55:00.796Z,65.90
2017-06-12T05:57:34.680Z,64.80
2017-06-12T06:00:09.217Z,65.00
2017-06-12T06:02:43.296Z,65.00
2017-06-12T06:05:17.752Z,64.60
2017-06-12T06:07:51.764Z,64.60
2017-06-12T06:10:25.341Z,63.40
2017-06-12T06:12:59.204Z,61.50
2017-06-12T06:15:33.621Z,61.90
2017-06-12T06:18:08.136Z,60.70
2017-06-12T06:20:42.853Z,60.10
2017-06-12T06:23:17.037Z,60.10
2017-06-12T06:25:50.660Z,59.50
2017-06-12T06:28:24.616Z,58.60
2017-06-12T06:30:59.084Z,58.80
2017-06-12T06:33:33.175Z,58.30
2017-06-12T06:36:07.620Z,58.20
2017-06-12T06:38:41.698Z,58.20
2017-06-12T06:41:15.580Z,58.20
2017-06-12T06:43:49.469Z,57.60
2017-06-12T06:46:23.987Z,57.10
2017-06-12T06:48:57.952Z,57.70
2017-06-12T06:51:32.308Z,57.20
2017-06-12T06:54:07.248Z,58.50
2017-06-12T06:56:41.024Z,57.90
2017-06-12T06:59:15.968Z,57.70
2017-06-12T07:01:49.708Z,57.10
2017-06-12T07:04:23.666Z,57.80
2017-06-12T07:06:57.413Z,57.20
2017-06-12T07:09:31.077Z,56.90
2017-06-12T07:12:05.613Z,56.10
2017-06-12T07:14:40.496Z,56.00
2017-06-12T07:17:15.070Z,55.80
2017-06-12T07:19:49.141Z,55.80
2017-06-12T07:22:23.800Z,56.10
2017-06-12T07:24:57.892Z,56.10
2017-06-12T07:27:31.670Z,54.20
2017-06-12T07:30:07.221Z,53.90
2017-06-12T07:32:41.022Z,52.90
2017-06-12T07:35:14.741Z,52.50
2017-06-12T07:37:48.432Z,53.30
2017-06-12T07:40:22.456Z,49.80
2017-06-12T07:42:56.833Z,49.90
2017-06-12T07:45:30.843Z,49.80
2017-06-12T07:48:04.493Z,49.70
2017-06-12T07:50:38.257Z,49.60
2017-06-12T07:53:12.798Z,47.50
2017-06-12T07:55:46.479Z,46.40
2017-06-12T07:58:20.873Z,45.20
2017-06-12T08:00:54.914Z,45.10
2017-06-12T08:03:28.463Z,44.50
2017-06-12T08:06:03.076Z,44.60
2017-06-12T08:08:37.741Z,44.80
2017-06-12T08:11:12.613Z,44.20
2017-06-12T08:13:47.187Z,44.20
2017-06-12T08:16:21.272Z,44.10
2017-06-12T08:18:54.980Z,44.20
2017-06-12T08:21:29.582Z,44.70
2017-06-12T08:24:04.257Z,45.10
2017-06-12T08:26:39.036Z,42.90
2017-06-12T08:29:13.612Z,43.10
2017-06-12T08:31:47.773Z,43.00
2017-06-12T08:34:23.069Z,42.80
2017-06-12T08:36:57.263Z,42.80
2017-06-12T08:39:30.884Z,43.20
2017-06-12T08:42:05.551Z,42.40
2017-06-12T08:44:39.469Z,42.30
2017-06-12T08:47:13.252Z,43.10
2017-06-12T08:49:47.923Z,42.80
2017-06-12T08:52:22.428Z,42.70
2017-06-12T08:54:56.328Z,42.60
2017-06-12T08:57:30.432Z,42.50
2017-06-12T09:00:04.961Z,42.50
2017-06-12T09:02:38.620Z,42.20
2017-06-12T09:05:12.264Z,42.40
2017-06-12T09:07:45.900Z,42.70
2017-06-12T09:10:19.549Z,42.40
2017-06-12T09:12:54.184Z,44.00
2017-06-12T09:15:28.240Z,43.80
2017-06-12T09:18:02.928Z,42.60
2017-06-12T09:20:36.836Z,42.60
2017-06-12T09:23:11.348Z,42.70
2017-06-12T09:25:45.959Z,43.20
2017-06-12T09:28:21.015Z,43.70
2017-06-12T09:30:54.776Z,43.10
2017-06-12T09:33:29.439Z,42.80
2017-06-12T09:36:04.049Z,42.50
2017-06-12T09:38:38.065Z,42.40
2017-06-12T09:41:11.683Z,42.60
2017-06-12T09:43:45.432Z,42.70
2017-06-12T09:46:19.098Z,42.20
2017-06-12T09:48:53.075Z,42.90
2017-06-12T09:51:27.495Z,41.90
2017-06-12T09:54:01.601Z,41.90
2017-06-12T09:56:36.953Z,41.10
2017-06-12T09:59:11.976Z,41.10
2017-06-12T10:01:45.688Z,39.80
2017-06-12T10:04:21.176Z,36.90
2017-06-12T10:06:54.902Z,37.50
2017-06-12T10:09:29.580Z,36.40
2017-06-12T10:12:04.192Z,35.60
2017-06-12T10:14:39.028Z,35.40
2017-06-12T10:17:12.809Z,35.30
2017-06-12T10:19:46.546Z,35.30
2017-06-12T10:22:20.164Z,34.70
2017-06-12T10:24:53.984Z,33.80
2017-06-12T10:27:27.676Z,35.50
2017-06-12T10:30:03.632Z,35.00
2017-06-12T10:32:38.119Z,34.30
2017-06-12T10:35:12.676Z,34.20
2017-06-12T10:37:46.988Z,34.10
2017-06-12T10:40:21.515Z,33.70
2017-06-12T10:42:56.208Z,34.80
2017-06-12T10:45:30.561Z,34.80
2017-06-12T10:48:04.851Z,35.10
2017-06-12T10:50:39.471Z,35.10
2017-06-12T10:53:13.208Z,35.00
2017-06-12T10:55:47.933Z,35.20
2017-06-12T10:58:22.828Z,35.40
2017-06-12T11:00:58.784Z,35.40
2017-06-12T11:03:33.213Z,34.70
2017-06-12T11:06:08.044Z,35.20
2017-06-12T11:08:41.783Z,35.10
2017-06-12T11:11:15.788Z,35.20
2017-06-12T11:13:51.000Z,36.70
2017-06-12T11:16:25.856Z,34.90
2017-06-12T11:18:59.766Z,34.20
2017-06-12T11:21:34.192Z,35.90
2017-06-12T11:24:08.148Z,35.80
2017-06-12T11:26:46.974Z,35.30
2017-06-12T11:29:22.020Z,34.60
2017-06-12T11:31:56.075Z,34.60
2017-06-12T11:34:29.983Z,35.60
2017-06-12T11:37:03.724Z,35.60
2017-06-12T11:39:37.369Z,35.30
2017-06-12T11:42:12.328Z,34.40
2017-06-12T11:44:46.228Z,34.40
2017-06-12T11:47:20.085Z,33.70
2017-06-12T11:49:53.828Z,32.10
2017-06-12T11:52:27.631Z,33.80
2017-06-12T11:55:02.028Z,31.00
2017-06-12T11:57:35.961Z,31.00
2017-06-12T12:00:10.371Z,29.20
2017-06-12T12:02:45.235Z,29.50
2017-06-12T12:05:19.325Z,29.40
2017-06-12T12:07:53.273Z,30.70
2017-06-12T12:10:28.649Z,30.30
2017-06-12T12:13:02.712Z,30.30
2017-06-12T12:15:37.098Z,29.00
2017-06-12T12:18:11.025Z,28.90
2017-06-12T12:20:44.824Z,30.00
2017-06-12T12:23:18.685Z,31.30
2017-06-12T12:25:52.456Z,31.90
2017-06-12T12:28:26.191Z,31.70
2017-06-12T12:30:59.836Z,30.40
2017-06-12T12:33:33.687Z,29.50
2017-06-12T12:36:07.472Z,30.00
2017-06-12T12:38:41.269Z,29.40
2017-06-12T12:41:14.880Z,26.20
2017-06-12T12:43:49.384Z,28.30
2017-06-12T12:46:23.232Z,28.30
2017-06-12T12:48:57.036Z,28.50
2017-06-12T12:51:30.817Z,29.30
2017-06-12T12:54:04.500Z,27.80
2017-06-12T12:56:38.220Z,28.00
2017-06-12T12:59:14.136Z,28.50
2017-06-12T13:01:47.876Z,28.60
2017-06-12T13:04:21.881Z,28.30
2017-06-12T13:06:55.558Z,28.70
2017-06-12T13:09:29.803Z,29.10
2017-06-12T13:12:04.808Z,28.90
2017-06-12T13:14:38.801Z,28.70
2017-06-12T13:17:13.351Z,29.80
2017-06-12T13:19:47.227Z,28.90
2017-06-12T13:22:21.008Z,30.10
2017-06-12T13:24:54.750Z,29.80
2017-06-12T13:27:29.180Z,28.90
2017-06-12T13:30:03.990Z,28.90
2017-06-12T13:32:37.796Z,28.50
2017-06-12T13:35:11.671Z,30.10
2017-06-12T13:37:47.064Z,28.60
2017-06-12T13:40:21.096Z,28.60
2017-06-12T13:42:54.885Z,27.90
2017-06-12T13:45:28.766Z,27.60
2017-06-12T13:48:02.540Z,28.40
2017-06-12T13:50:37.340Z,27.90
2017-06-12T13:53:11.177Z,27.90
2017-06-12T13:55:44.925Z,27.90
2017-06-12T13:58:18.580Z,28.40
2017-06-12T14:00:54.416Z,27.50
2017-06-12T14:03:28.145Z,27.10
2017-06-12T14:06:02.861Z,27.80
2017-06-12T14:08:36.772Z,27.80
2017-06-12T14:11:11.604Z,27.10
2017-06-12T14:13:46.189Z,26.80
2017-06-12T14:16:20.366Z,26.80
2017-06-12T14:18:54.820Z,26.40
2017-06-12T14:21:28.923Z,26.30
2017-06-12T14:24:02.509Z,25.60
2017-06-12T14:26:36.340Z,26.10
2017-06-12T14:29:09.916Z,24.70
2017-06-12T14:31:43.642Z,24.70
2017-06-12T14:34:18.068Z,25.60
2017-06-12T14:36:51.971Z,25.50
2017-06-12T14:39:26.297Z,25.70
2017-06-12T14:42:01.075Z,26.60
2017-06-12T14:44:34.868Z,26.50
2017-06-12T14:47:09.484Z,25.10
2017-06-12T14:49:43.495Z,24.70
2017-06-12T14:52:17.268Z,25.70
2017-06-12T14:54:51.888Z,22.90
2017-06-12T14:57:26.085Z,22.90
2017-06-12T14:59:59.955Z,22.50
2017-06-12T15:02:34.532Z,23.90
2017-06-12T15:05:08.956Z,25.00
2017-06-12T15:07:42.984Z,25.00
2017-06-12T15:10:17.488Z,23.90
2017-06-12T15:12:51.595Z,23.90
2017-06-12T15:15:25.304Z,24.20
2017-06-12T15:17:59.204Z,24.40
2017-06-12T15:20:32.917Z,25.50
2017-06-12T15:23:07.472Z,23.00
2017-06-12T15:25:42.251Z,23.10
2017-06-12T15:28:16.081Z,22.80
2017-06-12T15:30:50.497Z,24.00
2017-06-12T15:33:24.486Z,23.30
2017-06-12T15:35:58.110Z,23.90
2017-06-12T15:38:31.888Z,24.40
2017-06-12T15:41:06.332Z,25.00
2017-06-12T15:43:40.423Z,25.00
2017-06-12T15:46:14.861Z,25.60
2017-06-12T15:48:48.741Z,26.10
2017-06-12T15:51:24.016Z,25.40
2017-06-12T15:53:58.217Z,25.40
2017-06-12T15:56:33.476Z,26.30
2017-06-12T15:59:08.625Z,26.30
2017-06-12T16:01:42.268Z,26.80
2017-06-12T16:04:16.128Z,25.50
2017-06-12T16:06:49.872Z,27.10
2017-06-12T16:09:23.819Z,27.00
2017-06-12T16:11:58.248Z,27.30
2017-06-12T16:14:32.223Z,26.50
2017-06-12T16:17:06.760Z,26.00
2017-06-12T16:19:40.408Z,26.50
2017-06-12T16:22:14.068Z,25.00
2017-06-12T16:24:47.925Z,24.50
2017-06-12T16:27:21.679Z,25.70
2017-06-12T16:29:56.532Z,25.70
2017-06-12T16:32:31.048Z,26.00
2017-06-12T16:35:05.314Z,25.50
2017-06-12T16:37:38.864Z,24.90
2017-06-12T16:40:13.423Z,24.40
2017-06-12T16:42:47.346Z,24.40
2017-06-12T16:48:03.744Z,28.10
2017-06-12T16:50:37.691Z,27.40
2017-06-12T16:53:11.288Z,28.50
2017-06-12T16:55:46.189Z,27.60
2017-06-12T16:58:20.785Z,28.00
2017-06-12T17:00:55.044Z,28.00
2017-06-12T17:03:29.475Z,27.50
2017-06-12T17:06:03.272Z,29.20
2017-06-12T17:08:37.756Z,30.90
2017-06-12T17:11:11.792Z,30.80
2017-06-12T17:13:46.180Z,31.60
2017-06-12T17:16:20.965Z,31.10
2017-06-12T17:18:55.072Z,31.30
2017-06-12T17:21:29.682Z,32.30
2017-06-12T17:24:03.705Z,32.30
2017-06-12T17:26:37.637Z,32.50
2017-06-12T17:29:12.212Z,32.60
2017-06-12T17:31:48.083Z,32.80
2017-06-12T17:34:22.580Z,32.80
2017-06-12T17:36:57.532Z,33.20
2017-06-12T17:39:31.400Z,33.20
2017-06-12T17:42:05.204Z,34.20
2017-06-12T17:44:38.905Z,33.60
2017-06-12T17:47:12.800Z,34.00
2017-06-12T17:49:46.419Z,33.60
2017-06-12T17:52:20.328Z,32.30
2017-06-12T17:54:55.584Z,33.00
2017-06-12T17:57:29.789Z,32.60
2017-06-12T18:00:03.400Z,33.10
2017-06-12T18:02:37.177Z,33.20
2017-06-12T18:05:10.913Z,32.30
2017-06-12T18:07:44.789Z,33.10
2017-06-12T18:10:19.336Z,32.40
2017-06-12T18:12:53.506Z,32.40
2017-06-12T18:15:28.096Z,33.50
2017-06-12T18:18:02.656Z,33.70
2017-06-12T18:20:36.652Z,33.60
2017-06-12T18:23:11.309Z,35.00
2017-06-12T18:25:45.292Z,34.90
2017-06-12T18:28:19.901Z,35.60
2017-06-12T18:30:53.697Z,35.50
2017-06-12T18:33:28.311Z,35.90
2017-06-12T18:36:02.250Z,36.00
2017-06-12T18:38:36.873Z,36.60
2017-06-12T18:41:10.707Z,36.40
2017-06-12T18:43:44.688Z,36.80
2017-06-12T18:46:19.093Z,37.30
2017-06-12T18:48:53.188Z,37.40
2017-06-12T18:51:26.820Z,37.10
2017-06-12T18:54:00.666Z,37.60
2017-06-12T18:56:34.399Z,37.50
2017-06-12T18:59:09.177Z,38.20
2017-06-12T19:01:42.759Z,38.10
2017-06-12T19:04:16.623Z,38.20
2017-06-12T19:06:51.057Z,38.50
2017-06-12T19:09:25.163Z,38.50
2017-06-12T19:12:00.419Z,39.30
2017-06-12T19:14:34.504Z,39.30
2017-06-12T19:17:08.129Z,39.30
2017-06-12T19:19:41.928Z,39.90
2017-06-12T19:22:15.631Z,40.00
2017-06-12T19:24:49.549Z,39.90
2017-06-12T19:27:23.146Z,40.50
2017-06-12T19:29:57.918Z,41.50
2017-06-12T19:32:32.393Z,40.50
2017-06-12T19:35:06.400Z,40.50
2017-06-12T19:37:40.183Z,40.80
2017-06-12T19:40:13.887Z,41.40
2017-06-12T19:42:47.601Z,41.70
2017-06-12T19:45:21.500Z,41.80
2017-06-12T19:47:55.103Z,41.50
2017-06-12T19:50:28.968Z,42.10
2017-06-12T19:53:04.272Z,41.50
2017-06-12T19:55:38.227Z,41.30
2017-06-12T19:58:12.800Z,42.50
2017-06-12T20:00:46.792Z,41.90
2017-06-12T20:03:20.420Z,41.90
2017-06-12T20:05:54.312Z,41.70
2017-06-12T20:08:28.744Z,42.80
2017-06-12T20:11:02.788Z,42.20
2017-06-12T20:13:36.605Z,42.20
2017-06-12T20:16:11.240Z,42.60
2017-06-12T20:18:45.928Z,42.90
2017-06-12T20:21:20.783Z,42.90
2017-06-12T20:23:54.645Z,42.80
2017-06-12T20:26:29.376Z,43.50
2017-06-12T20:29:03.239Z,43.40
2017-06-12T20:31:37.047Z,43.80
2017-06-12T20:34:10.756Z,44.00
2017-06-12T20:36:44.492Z,43.80
2017-06-12T20:39:18.191Z,43.90
2017-06-12T20:41:52.204Z,44.10
2017-06-12T20:44:26.772Z,43.80
2017-06-12T20:47:00.552Z,42.80
2017-06-12T20:49:35.173Z,44.30
2017-06-12T20:52:09.346Z,44.20
2017-06-12T20:54:43.696Z,44.60
2017-06-12T20:57:17.796Z,44.40
2017-06-12T20:59:51.415Z,44.40
2017-06-12T21:02:27.412Z,44.80
2017-06-12T21:05:01.097Z,44.80
2017-06-12T21:07:35.752Z,46.00
2017-06-12T21:10:09.756Z,46.00
2017-06-12T21:12:43.566Z,47.80
2017-06-12T21:15:17.165Z,45.60
2017-06-12T21:17:51.579Z,47.40
2017-06-12T21:20:25.592Z,47.20
2017-06-12T21:23:00.411Z,48.80
2017-06-12T21:25:34.917Z,49.30
2017-06-12T21:28:09.768Z,49.50
2017-06-12T21:30:43.680Z,49.80
2017-06-12T21:33:17.477Z,49.80
2017-06-12T21:35:51.265Z,49.80
2017-06-12T21:38:25.222Z,49.10
2017-06-12T21:41:00.608Z,49.50
2017-06-12T21:43:34.610Z,49.40
2017-06-12T21:46:08.475Z,48.90
2017-06-12T21:48:42.385Z,48.50
2017-06-12T21:51:16.089Z,48.50
2017-06-12T21:53:49.971Z,49.30
2017-06-12T21:56:23.692Z,49.80
2017-06-12T21:58:58.596Z,49.70
2017-06-12T22:01:33.116Z,50.90
2017-06-12T22:04:07.233Z,50.80
2017-06-12T22:06:40.828Z,49.00
2017-06-12T22:09:14.677Z,50.30
2017-06-12T22:11:49.248Z,51.70
2017-06-12T22:14:23.283Z,51.70
2017-06-12T22:16:57.783Z,52.30
2017-06-12T22:19:31.972Z,52.20
2017-06-12T22:22:05.677Z,51.70
2017-06-12T22:24:39.512Z,52.80
2017-06-12T22:27:13.208Z,53.60
2017-06-12T22:29:49.420Z,53.40
2017-06-12T22:32:23.936Z,53.40
2017-06-12T22:34:57.801Z,53.70
2017-06-12T22:37:31.547Z,54.10
2017-06-12T22:40:05.408Z,53.10
2017-06-12T22:42:39.930Z,53.20
2017-06-12T22:45:13.600Z,52.50
2017-06-12T22:47:47.185Z,53.80
2017-06-12T22:50:21.724Z,52.70
2017-06-12T22:52:55.665Z,52.70
2017-06-12T22:55:29.621Z,53.80
2017-06-12T22:58:03.321Z,54.20
2017-06-12T23:00:38.106Z,52.90
2017-06-12T23:03:12.639Z,54.90
2017-06-12T23:05:46.709Z,54.80
2017-06-12T23:08:21.080Z,53.80
2017-06-12T23:10:55.720Z,53.70
2017-06-12T23:13:29.647Z,53.70
2017-06-12T23:16:03.444Z,53.80
2017-06-12T23:18:37.248Z,52.40
2017-06-12T23:21:10.910Z,52.60
2017-06-12T23:23:44.528Z,52.70
2017-06-12T23:26:22.721Z,53.30
2017-06-12T23:28:57.138Z,53.20
2017-06-12T23:31:30.950Z,52.40
2017-06-12T23:34:05.382Z,52.50
2017-06-12T23:36:39.369Z,52.40
2017-06-12T23:39:13.069Z,52.00
2017-06-12T23:41:46.834Z,52.30
2017-06-12T23:44:21.320Z,52.90
2017-06-12T23:46:55.421Z,52.90
2017-06-12T23:49:29.848Z,53.40
2017-06-12T23:52:04.723Z,52.70
2017-06-12T23:54:39.408Z,52.90
2017-06-12T23:57:13.772Z,52.80
2017-06-12T23:59:48.964Z,52.50
